Startpagina
METAR-TAF:

METAR-TAF

Vliegvelden :

Capo Mele

Andora, Italië

breedte: 43-57N, lengte: 008-10E, hoogte: 220 m

Actueel weer

Dit bericht is 42 minuten geleden gemaakt, om 19:55 UTC
Wind 7 kt uit het noordoosten
Temperatuur 12°C
Vochtigheid 94%
Druk 1026 hPa
Zicht 10 km of meer
Verspreide wolken op 1500 ft
Gebroken wolken op 2000 ft

METAR: LIMU 231955Z 04007KT 9999 SCT015 BKN020 12/11 Q1026 RMK OVC QUK / QUL / VIS MAR 20 KM VIS MIN 9999

Tijdstip: 21:37 (20:37 UTC)


TAF: ontbreekt

Waarnemingen en weersverwachtingen van meer dan 4000 vliegvelden (METAR en TAF).

De beschikbare stations zijn de gele en rode punten op de kaart.

Ga met uw muis naar het station om de naam te zien.

Klik dan om waarnemingen en weersverwachtingen te zien.

kaart wijzigen: klik op de groene knoppen met een zwart kruis om in te zoomen, op de groene knop met een streepje om uit te zoomen of op de groene pijlen voor aangrenzende kaarten.


METAR-TAF: